Time;durP1;ratioP1;P1;durP2;ratioP2;P2;SDS_P1;SDS_P2;PMS_P1;PMS_P2;Temp;Humidity;BMP_temperature;BMP_pressure;BME280_temperature;BME280_humidity;BME280_pressure;Samples;Min_cycle;Max_cycle;Signal;HPM_P1;HPM_P2
2022/11/10 00:00:53;;;;;;;1.67;0.90;;;13.10;99.90;;;;;;5046024;28;20190;-72
2022/11/10 00:03:18;;;;;;;3.15;0.85;;;13.00;99.90;;;;;;5051329;28;20299;-72
2022/11/10 00:05:49;;;;;;;1.75;1.00;;;13.00;99.90;;;;;;5053372;28;20214;-71
2022/11/10 00:08:14;;;;;;;2.83;1.10;;;12.90;99.90;;;;;;5051062;28;20225;-71
2022/11/10 00:11:00;;;;;;;2.20;1.10;;;12.90;99.90;;;;;;5045476;28;20212;-72
2022/11/10 00:13:28;;;;;;;2.95;1.30;;;12.80;99.90;;;;;;5051973;28;20178;-71
2022/11/10 00:18:41;;;;;;;1.95;0.90;;;12.70;99.90;;;;;;5051852;28;20204;-72
2022/11/10 00:21:08;;;;;;;1.92;0.80;;;12.70;99.90;;;;;;5054578;28;20172;-72
2022/11/10 00:23:34;;;;;;;3.17;1.10;;;12.60;99.90;;;;;;5053255;28;20173;-72
2022/11/10 00:26:00;;;;;;;3.80;1.67;;;12.60;99.90;;;;;;5051273;28;20178;-72
2022/11/10 00:28:28;;;;;;;2.00;1.02;;;12.60;99.90;;;;;;5052435;28;20235;-72
2022/11/10 00:30:54;;;;;;;1.38;0.85;;;12.50;99.90;;;;;;5050643;28;20178;-71
2022/11/10 00:33:19;;;;;;;4.03;1.05;;;12.60;99.90;;;;;;5051722;28;20181;-72
2022/11/10 00:35:45;;;;;;;1.63;0.90;;;12.50;99.90;;;;;;5048032;28;20185;-72
2022/11/10 00:38:13;;;;;;;1.85;0.85;;;12.50;99.90;;;;;;5062404;28;20203;-72
2022/11/10 00:40:43;;;;;;;1.50;0.70;;;12.50;99.90;;;;;;5053556;28;20203;-72
2022/11/10 00:43:11;;;;;;;2.83;1.00;;;12.50;99.90;;;;;;5052829;28;20181;-72
2022/11/10 00:45:43;;;;;;;3.35;1.17;;;12.50;99.90;;;;;;5049704;28;20505;-73
2022/11/10 00:48:08;;;;;;;1.83;1.00;;;12.50;99.90;;;;;;5041065;28;20232;-72
2022/11/10 00:50:36;;;;;;;2.45;0.90;;;12.50;99.90;;;;;;5051541;28;20526;-73
2022/11/10 00:53:02;;;;;;;2.38;0.98;;;12.50;99.90;;;;;;5045042;28;20232;-72
2022/11/10 00:55:30;;;;;;;1.85;0.95;;;12.50;99.90;;;;;;5038496;28;20170;-72
2022/11/10 00:57:56;;;;;;;2.13;0.85;;;12.40;99.90;;;;;;5051320;28;20205;-72
2022/11/10 01:00:21;;;;;;;3.20;1.10;;;12.40;99.90;;;;;;5050655;28;20196;-72
2022/11/10 01:02:47;;;;;;;3.55;1.00;;;12.40;99.90;;;;;;5047953;28;20181;-73
2022/11/10 01:05:12;;;;;;;3.25;1.10;;;12.40;99.90;;;;;;5051100;28;20284;-70
2022/11/10 01:07:43;;;;;;;2.88;1.00;;;12.30;99.90;;;;;;5053004;28;20213;-72
2022/11/10 01:10:08;;;;;;;2.78;0.90;;;12.30;99.90;;;;;;5047213;28;20173;-72
2022/11/10 01:12:34;;;;;;;2.35;1.08;;;12.30;99.90;;;;;;5047179;28;20167;-72
2022/11/10 01:15:00;;;;;;;3.50;1.10;;;12.30;99.90;;;;;;5055405;28;20173;-73
2022/11/10 01:17:28;;;;;;;3.15;1.67;;;12.30;99.90;;;;;;5054144;28;20178;-72
2022/11/10 01:19:54;;;;;;;4.13;1.00;;;12.40;99.90;;;;;;5054447;28;20181;-72
2022/11/10 01:22:19;;;;;;;3.00;0.90;;;12.30;99.90;;;;;;5054964;28;20174;-72
2022/11/10 01:24:45;;;;;;;1.63;0.90;;;12.30;99.90;;;;;;5049390;28;20200;-72
2022/11/10 01:27:13;;;;;;;1.70;0.80;;;12.20;99.90;;;;;;5053749;28;20209;-70
2022/11/10 01:29:38;;;;;;;2.65;1.02;;;12.30;99.90;;;;;;5057470;28;20173;-71
2022/11/10 01:32:06;;;;;;;4.05;1.15;;;12.30;99.90;;;;;;5056051;28;20231;-72
2022/11/10 01:34:32;;;;;;;2.15;0.80;;;12.20;99.90;;;;;;5053872;28;20181;-72
2022/11/10 01:37:00;;;;;;;3.28;1.10;;;12.30;99.90;;;;;;5055440;28;20199;-71
2022/11/10 01:39:26;;;;;;;2.33;0.90;;;12.30;99.90;;;;;;5049348;28;20173;-71
2022/11/10 01:41:51;;;;;;;2.55;0.85;;;12.30;99.90;;;;;;5048602;28;20185;-73
2022/11/10 01:44:27;;;;;;;3.20;0.98;;;12.30;99.90;;;;;;5050927;28;20197;-73
2022/11/10 01:46:55;;;;;;;2.55;1.30;;;12.30;99.90;;;;;;5053628;28;20297;-72
2022/11/10 01:49:26;;;;;;;2.60;0.98;;;12.20;99.90;;;;;;5053893;28;20398;-72
2022/11/10 01:52:14;;;;;;;3.85;1.00;;;12.30;99.90;;;;;;5054967;28;20193;-72
2022/11/10 01:54:44;;;;;;;2.55;1.20;;;12.20;99.90;;;;;;5047339;28;20193;-72
2022/11/10 01:57:12;;;;;;;3.85;1.40;;;12.20;99.90;;;;;;5052387;28;20201;-71
2022/11/10 01:59:46;;;;;;;2.60;1.05;;;12.20;99.90;;;;;;5054484;28;20209;-73
2022/11/10 02:02:33;;;;;;;2.42;1.02;;;12.20;99.90;;;;;;5054417;28;20180;-73
2022/11/10 02:05:03;;;;;;;2.53;1.00;;;12.20;99.90;;;;;;5047150;28;20200;-71
2022/11/10 02:07:30;;;;;;;2.72;1.13;;;12.20;99.90;;;;;;5063352;28;20205;-72
2022/11/10 02:09:56;;;;;;;1.98;1.20;;;12.20;99.90;;;;;;5050187;28;20212;-71
2022/11/10 02:12:36;;;;;;;2.95;1.20;;;12.20;99.90;;;;;;5055222;28;20177;-72
2022/11/10 02:15:07;;;;;;;5.25;1.15;;;12.20;99.90;;;;;;5057029;28;20181;-71
2022/11/10 02:17:32;;;;;;;3.25;1.25;;;12.20;99.90;;;;;;5050901;28;20205;-73
2022/11/10 02:20:01;;;;;;;3.42;1.10;;;12.20;99.90;;;;;;5055290;28;20181;-72
2022/11/10 02:22:26;;;;;;;3.17;1.05;;;12.20;99.90;;;;;;5053186;28;20261;-73
2022/11/10 02:24:52;;;;;;;3.50;1.10;;;12.20;99.90;;;;;;5053604;28;20211;-71
2022/11/10 02:27:19;;;;;;;2.63;1.00;;;12.20;99.90;;;;;;5057933;28;20216;-71
2022/11/10 02:29:45;;;;;;;2.90;1.15;;;12.20;99.90;;;;;;5050505;28;20271;-71
2022/11/10 02:32:13;;;;;;;3.20;1.05;;;12.20;99.90;;;;;;5049634;28;20174;-70
2022/11/10 02:34:39;;;;;;;4.82;1.23;;;12.10;99.90;;;;;;5055771;28;20181;-71
2022/11/10 02:37:04;;;;;;;2.63;1.23;;;12.10;99.90;;;;;;5053284;28;20334;-72
2022/11/10 02:39:30;;;;;;;2.38;1.00;;;12.10;99.90;;;;;;5052681;28;20181;-70
2022/11/10 02:41:58;;;;;;;2.78;0.98;;;12.10;99.90;;;;;;5055304;28;20185;-71
2022/11/10 02:44:25;;;;;;;3.90;1.10;;;12.10;99.90;;;;;;5052126;28;20177;-72
2022/11/10 02:46:51;;;;;;;3.45;1.00;;;12.10;99.90;;;;;;5066614;28;20197;-72
2022/11/10 02:49:19;;;;;;;2.83;1.05;;;12.00;99.90;;;;;;5055676;28;20193;-71
2022/11/10 02:51:44;;;;;;;2.08;0.98;;;12.00;99.90;;;;;;5058059;28;20169;-72
2022/11/10 02:54:10;;;;;;;3.33;0.93;;;12.00;99.90;;;;;;5056205;28;20177;-71
2022/11/10 02:56:35;;;;;;;4.25;1.08;;;12.00;99.90;;;;;;5052194;28;20225;-71
2022/11/10 02:59:03;;;;;;;3.92;1.20;;;12.00;99.90;;;;;;5045225;28;20185;-71
2022/11/10 03:01:29;;;;;;;4.60;1.10;;;12.00;99.90;;;;;;5060844;28;20173;-71
2022/11/10 03:03:54;;;;;;;5.53;1.30;;;12.00;99.90;;;;;;5060378;28;20173;-71
2022/11/10 03:06:23;;;;;;;4.57;1.20;;;12.00;99.90;;;;;;5048571;28;20178;-72
2022/11/10 03:08:48;;;;;;;3.75;1.00;;;12.00;99.90;;;;;;5054268;28;20280;-72
2022/11/10 03:11:16;;;;;;;2.80;0.80;;;12.00;99.90;;;;;;5056326;28;20196;-73
2022/11/10 03:13:44;;;;;;;2.85;1.10;;;12.00;99.90;;;;;;5053282;28;20169;-73
2022/11/10 03:16:09;;;;;;;2.92;0.88;;;12.00;99.90;;;;;;5054890;28;20190;-72
2022/11/10 03:18:35;;;;;;;3.03;0.90;;;12.00;99.90;;;;;;5055856;28;20185;-72
2022/11/10 03:21:01;;;;;;;3.15;1.10;;;12.00;99.90;;;;;;5046861;28;20184;-72
2022/11/10 03:23:26;;;;;;;4.20;1.23;;;12.00;99.90;;;;;;5044382;28;20185;-72
2022/11/10 03:25:52;;;;;;;2.72;1.00;;;12.00;99.90;;;;;;5047946;28;20166;-72
2022/11/10 03:28:17;;;;;;;2.92;1.00;;;12.00;99.90;;;;;;5052995;28;20277;-72
2022/11/10 03:30:44;;;;;;;3.17;0.98;;;12.00;99.90;;;;;;5054364;28;20189;-72
2022/11/10 03:33:10;;;;;;;3.47;1.33;;;12.00;99.90;;;;;;5056373;28;20362;-72
2022/11/10 03:35:35;;;;;;;1.83;1.00;;;11.90;99.90;;;;;;5040872;28;20201;-72
2022/11/10 03:38:02;;;;;;;4.38;1.20;;;12.00;99.90;;;;;;5047481;28;20231;-71
2022/11/10 03:40:29;;;;;;;2.95;0.88;;;11.90;99.90;;;;;;5054584;28;20172;-71
2022/11/10 03:42:57;;;;;;;2.00;0.98;;;11.90;99.90;;;;;;5050605;28;20198;-71
2022/11/10 03:45:23;;;;;;;3.78;1.15;;;11.90;99.90;;;;;;5057849;28;20179;-71
2022/11/10 03:47:49;;;;;;;3.22;0.90;;;11.90;99.90;;;;;;5055390;28;20185;-72
2022/11/10 03:50:15;;;;;;;2.47;1.00;;;11.80;99.90;;;;;;5054438;28;20184;-71
2022/11/10 03:52:48;;;;;;;3.03;1.10;;;11.80;99.90;;;;;;5054569;28;20177;-71
2022/11/10 03:55:16;;;;;;;3.33;1.00;;;11.80;99.90;;;;;;5049743;28;20256;-72
2022/11/10 03:57:42;;;;;;;1.90;0.93;;;11.80;99.90;;;;;;5046027;28;20188;-72
2022/11/10 04:00:09;;;;;;;4.15;1.10;;;11.80;99.90;;;;;;5054365;28;20181;-71
2022/11/10 04:02:35;;;;;;;4.80;0.95;;;11.80;99.90;;;;;;5054124;28;20200;-72
2022/11/10 04:10:35;;;;;;;2.78;1.20;;;11.70;99.90;;;;;;5049439;28;20759;-72
2022/11/10 04:15:47;;;;;;;5.30;1.10;;;11.70;99.90;;;;;;5054579;28;20285;-72
2022/11/10 04:18:23;;;;;;;2.65;1.30;;;11.80;99.90;;;;;;5051350;28;20193;-73
2022/11/10 04:20:53;;;;;;;1.77;0.80;;;11.70;99.90;;;;;;5051520;28;20192;-71
2022/11/10 04:23:25;;;;;;;3.28;1.00;;;11.70;99.90;;;;;;5053078;28;20189;-72
2022/11/10 04:28:45;;;;;;;2.63;1.00;;;11.70;99.90;;;;;;5053138;28;20315;-75
2022/11/10 04:31:11;;;;;;;2.58;0.85;;;11.70;99.90;;;;;;5052293;28;20261;-72
2022/11/10 04:33:38;;;;;;;5.05;1.33;;;11.70;99.90;;;;;;5050146;28;20209;-71
2022/11/10 04:36:04;;;;;;;3.40;1.27;;;11.70;99.90;;;;;;5051400;28;20201;-72
2022/11/10 04:38:29;;;;;;;3.85;1.08;;;11.60;99.90;;;;;;5052533;28;20278;-71
2022/11/10 04:40:55;;;;;;;4.07;1.20;;;11.70;99.90;;;;;;5045602;28;20389;-72
2022/11/10 04:43:21;;;;;;;4.82;1.30;;;11.60;99.90;;;;;;5046778;28;20201;-72
2022/11/10 04:45:46;;;;;;;4.20;1.17;;;11.60;99.90;;;;;;5049412;28;20267;-72
2022/11/10 04:48:12;;;;;;;6.20;1.35;;;11.60;99.90;;;;;;5047378;28;20209;-72
2022/11/10 04:50:38;;;;;;;3.28;1.23;;;11.50;99.90;;;;;;5047952;28;20208;-71
2022/11/10 04:53:04;;;;;;;2.75;1.00;;;11.50;99.90;;;;;;5053209;28;20208;-72
2022/11/10 04:55:29;;;;;;;3.30;1.08;;;11.50;99.90;;;;;;5053568;28;20205;-72
2022/11/10 04:57:55;;;;;;;2.45;1.08;;;11.50;99.90;;;;;;5053483;28;20281;-71
2022/11/10 05:00:21;;;;;;;3.53;1.50;;;11.50;99.90;;;;;;5053173;28;20192;-72
2022/11/10 05:02:46;;;;;;;3.97;1.00;;;11.40;99.90;;;;;;5067506;28;20218;-72
2022/11/10 05:05:14;;;;;;;4.47;1.50;;;11.50;99.90;;;;;;5052776;28;20193;-71
2022/11/10 05:07:40;;;;;;;3.97;1.40;;;11.50;99.90;;;;;;5052470;28;20223;-72
2022/11/10 05:10:08;;;;;;;3.88;1.55;;;11.50;99.90;;;;;;5042849;28;20182;-72
2022/11/10 05:12:33;;;;;;;3.08;1.30;;;11.50;99.90;;;;;;5053336;28;20184;-73
2022/11/10 05:15:04;;;;;;;3.60;1.20;;;11.50;99.90;;;;;;5048582;28;20178;-72
2022/11/10 05:17:31;;;;;;;6.13;1.30;;;11.50;99.90;;;;;;5052611;28;20184;-72
2022/11/10 05:19:59;;;;;;;3.60;1.17;;;11.50;99.90;;;;;;5053459;28;20258;-73
2022/11/10 05:22:27;;;;;;;4.35;1.48;;;11.50;99.90;;;;;;5043270;28;20558;-72
2022/11/10 05:24:52;;;;;;;4.63;1.42;;;11.40;99.90;;;;;;5050636;28;20188;-72
2022/11/10 05:27:18;;;;;;;3.42;1.00;;;11.40;99.90;;;;;;5053138;28;20217;-72
2022/11/10 05:29:48;;;;;;;4.13;1.95;;;11.40;99.90;;;;;;5052563;28;20177;-72
2022/11/10 05:32:16;;;;;;;5.45;1.90;;;11.40;99.90;;;;;;5047170;28;20182;-73
2022/11/10 05:34:44;;;;;;;2.80;1.10;;;11.40;99.90;;;;;;5069024;28;20208;-72
2022/11/10 05:37:10;;;;;;;3.67;1.37;;;11.40;99.90;;;;;;5042326;28;20181;-72
2022/11/10 05:39:35;;;;;;;3.53;1.00;;;11.40;99.90;;;;;;5052663;28;20296;-73
2022/11/10 05:42:01;;;;;;;3.47;1.23;;;11.40;99.90;;;;;;5048160;28;20182;-73
2022/11/10 05:44:26;;;;;;;4.60;1.13;;;11.30;99.90;;;;;;5049217;28;20185;-72
2022/11/10 05:46:54;;;;;;;4.45;1.20;;;11.30;99.90;;;;;;5051918;28;20209;-71
2022/11/10 05:49:23;;;;;;;3.50;1.50;;;11.30;99.90;;;;;;5047130;28;22507;-72
2022/11/10 05:51:50;;;;;;;4.97;1.90;;;11.30;99.90;;;;;;5052329;28;20177;-72
2022/11/10 05:54:16;;;;;;;6.68;1.75;;;11.30;99.90;;;;;;5049572;28;20197;-73
2022/11/10 05:56:44;;;;;;;5.40;1.60;;;11.30;99.90;;;;;;5051773;28;20216;-72
2022/11/10 05:59:10;;;;;;;4.68;1.17;;;11.30;99.90;;;;;;5050323;28;20220;-73
2022/11/10 06:01:38;;;;;;;11.93;1.33;;;11.30;99.90;;;;;;5054335;28;20219;-73
2022/11/10 06:04:04;;;;;;;3.33;1.20;;;11.30;99.90;;;;;;5047907;28;20260;-72
2022/11/10 06:06:29;;;;;;;6.03;1.40;;;11.30;99.90;;;;;;5056177;28;20293;-73
2022/11/10 06:08:55;;;;;;;4.93;1.23;;;11.30;99.90;;;;;;5045019;28;20204;-72
2022/11/10 06:11:25;;;;;;;2.85;1.10;;;11.20;99.90;;;;;;5054801;28;20189;-72
2022/11/10 06:13:51;;;;;;;2.65;1.30;;;11.20;99.90;;;;;;5055058;28;20178;-72
2022/11/10 06:16:16;;;;;;;2.47;1.20;;;11.20;99.90;;;;;;5052398;28;20184;-73
2022/11/10 06:18:42;;;;;;;5.53;1.40;;;11.20;99.90;;;;;;5056429;28;20188;-73
2022/11/10 06:21:10;;;;;;;5.30;1.40;;;11.20;99.90;;;;;;5051807;28;20173;-72
2022/11/10 06:23:36;;;;;;;2.97;1.23;;;11.20;99.90;;;;;;5056066;28;20173;-74
2022/11/10 06:26:04;;;;;;;5.27;1.20;;;11.20;99.90;;;;;;5053980;28;20327;-73
2022/11/10 06:28:29;;;;;;;5.10;1.40;;;11.20;99.90;;;;;;5061058;28;20201;-72
2022/11/10 06:30:58;;;;;;;4.13;1.23;;;11.20;99.90;;;;;;5061348;28;20204;-74
2022/11/10 06:33:26;;;;;;;5.87;1.50;;;11.10;99.90;;;;;;5056183;28;20177;-72
2022/11/10 06:35:55;;;;;;;4.10;1.23;;;11.20;99.90;;;;;;5054608;28;20169;-73
2022/11/10 06:38:22;;;;;;;4.07;1.50;;;11.20;99.90;;;;;;5052177;28;20251;-74
2022/11/10 06:40:53;;;;;;;5.43;1.60;;;11.10;99.90;;;;;;5054272;28;20192;-73
2022/11/10 06:43:18;;;;;;;8.35;1.83;;;11.10;99.90;;;;;;5043214;28;20212;-72
2022/11/10 06:45:44;;;;;;;6.97;1.77;;;11.10;99.90;;;;;;5051825;28;20177;-72
2022/11/10 06:48:15;;;;;;;3.97;1.20;;;11.10;99.90;;;;;;5056275;28;20205;-74
2022/11/10 06:50:42;;;;;;;4.00;1.30;;;11.10;99.90;;;;;;5053492;28;20288;-71
2022/11/10 06:53:08;;;;;;;3.92;1.30;;;11.10;99.90;;;;;;5052801;28;20178;-73
2022/11/10 06:55:34;;;;;;;3.87;1.33;;;11.10;99.90;;;;;;5048465;28;20187;-73
2022/11/10 06:58:00;;;;;;;5.33;1.57;;;11.10;99.90;;;;;;5053247;28;20273;-73
2022/11/10 07:00:27;;;;;;;3.38;1.30;;;11.20;99.90;;;;;;5036508;28;20206;-73
2022/11/10 07:03:07;;;;;;;4.20;1.20;;;11.10;99.90;;;;;;5043743;28;20240;-73
2022/11/10 07:05:36;;;;;;;4.85;1.55;;;11.20;99.90;;;;;;5054263;28;20207;-74
2022/11/10 07:08:12;;;;;;;4.38;1.10;;;11.10;99.90;;;;;;5055698;28;20196;-69
2022/11/10 07:10:38;;;;;;;3.88;1.40;;;11.10;99.90;;;;;;5047804;28;20264;-72
2022/11/10 07:13:06;;;;;;;6.07;1.50;;;11.10;99.90;;;;;;5055519;28;20268;-72
2022/11/10 07:15:33;;;;;;;6.40;1.30;;;11.10;99.90;;;;;;5050409;28;20193;-72
2022/11/10 07:17:58;;;;;;;7.50;1.50;;;11.10;99.90;;;;;;5056311;28;20184;-72
2022/11/10 07:20:27;;;;;;;3.07;1.10;;;11.10;99.90;;;;;;5056091;28;20174;-72
2022/11/10 07:23:01;;;;;;;4.47;1.20;;;11.20;99.90;;;;;;5055994;28;20249;-73
2022/11/10 07:25:31;;;;;;;5.03;1.55;;;11.20;99.90;;;;;;5056092;28;20181;-72
2022/11/10 07:28:01;;;;;;;4.30;1.40;;;11.20;99.90;;;;;;5056602;28;20228;-72
2022/11/10 07:30:31;;;;;;;3.90;1.40;;;11.30;99.90;;;;;;5055757;28;20196;-72
2022/11/10 07:33:11;;;;;;;3.80;1.58;;;11.20;99.90;;;;;;5055569;28;20332;-72
2022/11/10 07:35:37;;;;;;;3.47;1.20;;;11.30;99.90;;;;;;5055729;28;20185;-71
2022/11/10 07:38:05;;;;;;;4.57;1.45;;;11.30;99.90;;;;;;5047790;28;20173;-71
2022/11/10 07:40:31;;;;;;;3.75;1.50;;;11.30;99.90;;;;;;5051979;28;20202;-73
2022/11/10 07:43:02;;;;;;;4.68;1.50;;;11.40;99.90;;;;;;5036704;28;20192;-72
2022/11/10 07:45:30;;;;;;;4.68;1.30;;;11.40;99.90;;;;;;5055544;28;20185;-72
2022/11/10 07:48:00;;;;;;;3.70;1.38;;;11.40;99.90;;;;;;5056733;28;20205;-73
2022/11/10 07:50:28;;;;;;;5.53;1.40;;;11.50;99.90;;;;;;5067752;28;20177;-73
2022/11/10 07:53:24;;;;;;;3.53;1.60;;;11.50;99.90;;;;;;5055306;28;20283;-73
2022/11/10 07:55:49;;;;;;;3.58;1.20;;;11.60;99.90;;;;;;5037448;28;20187;-73
2022/11/10 07:58:16;;;;;;;5.28;1.23;;;11.60;99.90;;;;;;5054745;28;20196;-73
2022/11/10 08:00:44;;;;;;;2.75;1.10;;;11.70;99.90;;;;;;5055104;28;20254;-73
2022/11/10 08:03:20;;;;;;;6.13;1.33;;;11.70;99.90;;;;;;5055094;28;20174;-73
2022/11/10 08:05:46;;;;;;;3.50;1.30;;;11.80;99.90;;;;;;5056889;28;20285;-73
2022/11/10 08:08:12;;;;;;;6.28;1.48;;;11.90;99.90;;;;;;5053493;28;20280;-73
2022/11/10 08:10:39;;;;;;;6.13;1.52;;;11.90;99.90;;;;;;5055120;28;20181;-73
2022/11/10 08:13:10;;;;;;;3.90;1.23;;;12.00;99.90;;;;;;5052914;28;20205;-73
2022/11/10 08:15:36;;;;;;;5.80;1.40;;;12.00;99.90;;;;;;5054612;28;20184;-72
2022/11/10 08:18:03;;;;;;;4.95;1.20;;;12.10;99.90;;;;;;5051470;28;20264;-72
2022/11/10 08:20:32;;;;;;;5.28;1.30;;;12.10;99.90;;;;;;5050806;28;20200;-73
2022/11/10 08:22:59;;;;;;;4.30;1.30;;;12.20;99.90;;;;;;5054716;28;20219;-73
2022/11/10 08:25:28;;;;;;;5.40;1.38;;;12.30;99.90;;;;;;5054436;28;20173;-72
2022/11/10 08:28:06;;;;;;;3.00;1.10;;;12.30;99.90;;;;;;5050227;28;20228;-73
2022/11/10 08:30:32;;;;;;;3.15;1.30;;;12.40;99.90;;;;;;5066271;28;20193;-72
2022/11/10 08:33:03;;;;;;;5.60;1.45;;;12.50;99.90;;;;;;5051381;28;20182;-72
2022/11/10 08:35:31;;;;;;;3.00;1.20;;;12.50;99.90;;;;;;5055085;28;20253;-72
2022/11/10 08:38:03;;;;;;;4.38;1.50;;;12.50;99.90;;;;;;5054404;28;20181;-74
2022/11/10 08:40:29;;;;;;;3.85;1.50;;;12.70;99.90;;;;;;5054203;28;20479;-72
2022/11/10 08:43:01;;;;;;;4.75;1.52;;;12.80;99.90;;;;;;5051132;28;20197;-73
2022/11/10 08:45:27;;;;;;;5.78;1.63;;;13.00;99.90;;;;;;5038400;28;20238;-74
2022/11/10 08:48:02;;;;;;;5.22;1.48;;;13.10;99.90;;;;;;5053987;28;20411;-72
2022/11/10 08:50:28;;;;;;;4.50;1.38;;;13.20;99.90;;;;;;5070293;28;20268;-74
2022/11/10 08:52:54;;;;;;;7.55;2.38;;;13.30;99.90;;;;;;5054354;28;20169;-72
2022/11/10 08:55:22;;;;;;;4.40;1.60;;;13.40;99.90;;;;;;5054357;28;20208;-72
2022/11/10 08:57:48;;;;;;;6.38;1.75;;;13.60;99.90;;;;;;5051149;28;20265;-74
2022/11/10 09:00:17;;;;;;;5.93;1.77;;;14.10;99.90;;;;;;5042866;28;20320;-73
2022/11/10 09:02:45;;;;;;;4.72;1.48;;;14.50;99.90;;;;;;5033995;28;20206;-73
2022/11/10 09:05:13;;;;;;;5.80;1.75;;;14.90;99.90;;;;;;5034582;28;20177;-74
2022/11/10 09:07:51;;;;;;;5.72;1.40;;;15.30;99.90;;;;;;5043869;28;20205;-73
2022/11/10 09:10:16;;;;;;;7.57;1.55;;;15.60;99.90;;;;;;5053976;28;20165;-74
2022/11/10 09:12:42;;;;;;;4.18;1.48;;;16.00;99.90;;;;;;5064318;28;20183;-72
2022/11/10 09:15:09;;;;;;;6.47;1.35;;;16.20;99.90;;;;;;5056603;28;20292;-74
2022/11/10 09:17:38;;;;;;;6.68;1.48;;;16.40;99.90;;;;;;5051209;28;20271;-74
2022/11/10 09:20:05;;;;;;;5.18;1.50;;;16.60;99.90;;;;;;5034609;28;20196;-74
2022/11/10 09:22:36;;;;;;;4.32;1.58;;;16.70;99.90;;;;;;5053979;28;20208;-74
2022/11/10 09:25:05;;;;;;;4.95;1.50;;;16.80;99.90;;;;;;5053229;28;20178;-74
2022/11/10 09:27:35;;;;;;;5.32;1.70;;;16.80;99.90;;;;;;5049056;28;20209;-72
2022/11/10 09:30:00;;;;;;;6.93;1.85;;;16.80;99.90;;;;;;5054029;28;20177;-74
2022/11/10 09:32:30;;;;;;;4.40;1.25;;;16.90;99.90;;;;;;5054176;28;20177;-73
2022/11/10 09:34:56;;;;;;;4.78;1.50;;;16.90;99.90;;;;;;5056623;28;20231;-74
2022/11/10 09:37:22;;;;;;;5.55;1.35;;;16.90;99.90;;;;;;5054069;28;20174;-73
2022/11/10 09:39:48;;;;;;;5.85;1.80;;;17.00;99.90;;;;;;5053039;28;20201;-74
2022/11/10 09:42:36;;;;;;;7.55;1.70;;;17.00;99.90;;;;;;5048980;28;20181;-75
2022/11/10 09:45:04;;;;;;;4.03;1.42;;;17.00;99.90;;;;;;5054121;28;20173;-74
2022/11/10 09:47:46;;;;;;;4.75;1.30;;;17.00;99.90;;;;;;5055580;28;20262;-74
2022/11/10 09:50:30;;;;;;;7.00;1.50;;;17.00;99.90;;;;;;5057751;28;20174;-73
2022/11/10 09:53:02;;;;;;;4.45;1.50;;;17.00;99.90;;;;;;5045668;28;20193;-72
2022/11/10 09:55:42;;;;;;;6.90;1.40;;;17.00;99.90;;;;;;5038875;28;20162;-73
2022/11/10 09:58:11;;;;;;;7.45;1.40;;;17.00;99.90;;;;;;5064895;28;20264;-73
2022/11/10 10:00:40;;;;;;;5.97;1.45;;;17.10;99.90;;;;;;5064492;28;20176;-72
2022/11/10 10:03:08;;;;;;;6.55;1.98;;;17.10;99.90;;;;;;5074357;28;20177;-73
2022/11/10 10:06:01;;;;;;;5.07;1.35;;;17.10;99.90;;;;;;5060366;28;20193;-75
2022/11/10 10:08:44;;;;;;;6.40;1.48;;;17.10;99.90;;;;;;5051720;28;20240;-73
2022/11/10 10:11:40;;;;;;;3.70;1.23;;;17.10;99.90;;;;;;5040303;28;20248;-74
2022/11/10 10:14:44;;;;;;;3.58;1.40;;;17.10;99.90;;;;;;5041159;28;20174;-73
2022/11/10 10:17:25;;;;;;;4.22;1.17;;;17.20;99.90;;;;;;5049177;28;20559;-73
2022/11/10 10:19:59;;;;;;;4.53;1.27;;;17.20;99.90;;;;;;5063250;28;20184;-73
2022/11/10 10:22:58;;;;;;;8.10;1.80;;;17.20;99.90;;;;;;5057217;28;20203;-74
2022/11/10 10:25:26;;;;;;;5.30;1.58;;;17.30;99.90;;;;;;5057203;28;20161;-73
2022/11/10 10:28:18;;;;;;;5.82;1.25;;;17.40;99.90;;;;;;5057033;28;20270;-75
2022/11/10 10:30:46;;;;;;;5.38;1.50;;;17.40;99.90;;;;;;5046723;28;20202;-75
2022/11/10 10:33:20;;;;;;;2.40;1.35;;;17.40;99.90;;;;;;5047709;28;20192;-75
2022/11/10 10:35:49;;;;;;;4.07;1.20;;;17.40;99.90;;;;;;5057158;28;20208;-74
2022/11/10 10:38:42;;;;;;;4.30;1.40;;;17.40;99.90;;;;;;5056616;28;20173;-73
2022/11/10 10:41:24;;;;;;;3.95;1.70;;;17.40;99.90;;;;;;5052324;28;20186;-75
2022/11/10 10:43:52;;;;;;;4.60;1.50;;;17.40;99.90;;;;;;5056276;28;20181;-75
2022/11/10 10:46:25;;;;;;;4.30;1.20;;;17.50;99.90;;;;;;5051751;28;20228;-73
2022/11/10 10:49:22;;;;;;;3.40;1.23;;;17.50;99.90;;;;;;5062660;28;20200;-74
2022/11/10 10:52:00;;;;;;;4.15;1.20;;;17.50;99.90;;;;;;5052721;28;20181;-72
2022/11/10 10:54:34;;;;;;;2.63;1.20;;;17.60;99.90;;;;;;5048382;28;20205;-73
2022/11/10 10:57:19;;;;;;;3.38;1.17;;;17.60;99.90;;;;;;5042966;28;20208;-74
2022/11/10 10:59:48;;;;;;;4.03;1.50;;;17.60;99.90;;;;;;5039195;28;20170;-75
2022/11/10 11:02:29;;;;;;;3.92;1.23;;;17.70;99.90;;;;;;5054657;28;20197;-73
2022/11/10 11:05:18;;;;;;;2.63;1.05;;;17.60;99.90;;;;;;5036592;28;20233;-73
2022/11/10 11:08:01;;;;;;;2.67;1.30;;;17.70;99.90;;;;;;5053816;28;20215;-73
2022/11/10 11:10:26;;;;;;;5.60;1.25;;;17.70;99.90;;;;;;5048463;28;20173;-74
2022/11/10 11:12:52;;;;;;;4.57;1.35;;;17.80;99.90;;;;;;5055741;28;20161;-75
2022/11/10 11:15:28;;;;;;;4.53;1.20;;;17.90;99.90;;;;;;5056119;28;20169;-73
2022/11/10 11:18:12;;;;;;;3.60;1.33;;;18.00;99.90;;;;;;5056115;28;20177;-75
2022/11/10 11:20:53;;;;;;;2.90;1.08;;;18.00;99.90;;;;;;5049964;28;20448;-74
2022/11/10 11:24:09;;;;;;;5.80;1.20;;;18.00;99.90;;;;;;5056062;28;20197;-75
2022/11/10 11:26:45;;;;;;;2.00;0.88;;;18.10;99.90;;;;;;5008563;28;20229;-75
2022/11/10 11:29:45;;;;;;;2.15;1.10;;;18.10;99.90;;;;;;5030773;28;20216;-75
2022/11/10 11:32:26;;;;;;;2.28;1.02;;;18.10;99.90;;;;;;5046306;28;20207;-74
2022/11/10 11:34:57;;;;;;;2.90;1.15;;;18.10;99.90;;;;;;5055063;28;20165;-74
2022/11/10 11:37:49;;;;;;;2.47;0.90;;;18.20;99.90;;;;;;5053443;28;20174;-73
2022/11/10 11:40:33;;;;;;;2.08;1.00;;;18.20;99.90;;;;;;5055440;28;20732;-73
2022/11/10 11:43:27;;;;;;;3.13;1.27;;;18.20;99.90;;;;;;5055543;28;20169;-73
2022/11/10 11:45:58;;;;;;;3.33;1.17;;;18.30;99.90;;;;;;5037166;28;20209;-74
2022/11/10 11:48:23;;;;;;;4.10;1.15;;;18.30;99.90;;;;;;5037687;28;20197;-72
2022/11/10 11:51:04;;;;;;;3.63;1.02;;;18.30;99.90;;;;;;5046869;28;20250;-74
2022/11/10 11:53:32;;;;;;;3.00;1.10;;;18.30;99.90;;;;;;5055189;28;20599;-72
2022/11/10 11:56:38;;;;;;;3.15;0.82;;;18.40;99.90;;;;;;5052963;28;20224;-73
2022/11/10 11:59:36;;;;;;;3.40;1.45;;;18.50;99.90;;;;;;4978216;28;20293;-72
2022/11/10 12:02:08;;;;;;;2.55;1.10;;;18.60;99.90;;;;;;5036033;28;20268;-73
2022/11/10 12:04:55;;;;;;;2.25;0.93;;;18.70;99.90;;;;;;5059132;28;20201;-73
2022/11/10 12:07:41;;;;;;;3.28;1.10;;;18.80;99.90;;;;;;5053126;28;20203;-72
2022/11/10 12:10:26;;;;;;;2.35;1.08;;;18.90;99.90;;;;;;5053176;28;20193;-73
2022/11/10 12:13:12;;;;;;;3.10;1.20;;;19.00;99.90;;;;;;5047319;28;20173;-73
2022/11/10 12:15:52;;;;;;;3.10;1.00;;;19.20;99.90;;;;;;5049720;28;20205;-73
2022/11/10 12:18:36;;;;;;;3.45;1.17;;;19.20;99.90;;;;;;5041751;28;20189;-73
2022/11/10 12:21:33;;;;;;;3.63;1.08;;;19.20;99.90;;;;;;5043891;28;20177;-73
2022/11/10 12:24:40;;;;;;;4.30;1.25;;;19.30;99.90;;;;;;5051705;28;20182;-72
2022/11/10 12:27:31;;;;;;;4.88;1.60;;;19.40;99.90;;;;;;5050049;28;20193;-74
2022/11/10 12:30:09;;;;;;;5.32;1.38;;;19.40;99.90;;;;;;5055333;28;20182;-73
2022/11/10 12:32:53;;;;;;;3.75;1.40;;;19.30;99.90;;;;;;5051323;28;20173;-73
2022/11/10 12:35:31;;;;;;;4.07;1.23;;;19.30;99.90;;;;;;5053291;28;20521;-73
2022/11/10 12:38:04;;;;;;;3.08;1.20;;;19.20;99.90;;;;;;5051560;28;20196;-72
2022/11/10 12:40:37;;;;;;;2.97;1.02;;;19.10;99.90;;;;;;5053972;28;20217;-72
2022/11/10 12:43:18;;;;;;;3.33;1.20;;;19.10;99.90;;;;;;5051230;28;20174;-72
2022/11/10 12:45:51;;;;;;;3.50;1.17;;;19.10;99.90;;;;;;5052539;28;20193;-73
2022/11/10 12:48:18;;;;;;;5.88;1.48;;;19.00;99.90;;;;;;5054062;28;20197;-72
2022/11/10 12:51:05;;;;;;;3.03;1.00;;;19.00;99.90;;;;;;5049825;28;20181;-73
2022/11/10 12:53:35;;;;;;;4.20;1.20;;;19.00;99.90;;;;;;5053771;28;20207;-73
2022/11/10 12:56:25;;;;;;;3.30;1.05;;;19.00;99.90;;;;;;5054962;28;20192;-72
2022/11/10 12:59:20;;;;;;;2.97;1.20;;;19.00;99.90;;;;;;5053899;28;20205;-72
2022/11/10 13:01:55;;;;;;;4.40;1.08;;;19.00;99.90;;;;;;5019647;28;20186;-72
2022/11/10 13:04:21;;;;;;;4.72;1.40;;;19.00;99.90;;;;;;5054580;28;20216;-73
2022/11/10 13:07:01;;;;;;;3.78;1.30;;;19.00;99.90;;;;;;5054009;28;20224;-72
2022/11/10 13:09:43;;;;;;;4.65;1.40;;;19.00;99.90;;;;;;5052775;28;20204;-74
2022/11/10 13:12:19;;;;;;;6.15;1.25;;;19.10;99.90;;;;;;5055241;28;20181;-74
2022/11/10 13:14:48;;;;;;;3.05;1.25;;;19.00;99.90;;;;;;5056793;28;20160;-72
2022/11/10 13:17:26;;;;;;;3.50;1.17;;;19.00;99.90;;;;;;5053712;28;20254;-73
2022/11/10 13:19:53;;;;;;;4.03;1.20;;;19.00;99.90;;;;;;5055866;28;20184;-73
2022/11/10 13:22:31;;;;;;;3.38;1.10;;;18.90;99.90;;;;;;5058265;28;20276;-73